Time;durP1;ratioP1;P1;durP2;ratioP2;P2;SDS_P1;SDS_P2;PMS_P1;PMS_P2;Temp;Humidity;BMP_temperature;BMP_pressure;BME280_temperature;BME280_humidity;BME280_pressure;Samples;Min_cycle;Max_cycle;Signal;HPM_P1;HPM_P2
2022/09/12 00:00:21;;;;;;;0.03;0.03;;;;;;;19.99;76.75;100339.03;7363073;19;20041;-62
2022/09/12 00:02:50;;;;;;;;;;;;;;;20.08;74.94;100343.72;7362804;19;20014;-63
2022/09/12 00:05:15;;;;;;;0.00;0.00;;;;;;;20.05;76.41;100350.06;7362668;19;19930;-63
2022/09/12 00:07:41;;;;;;;0.05;0.05;;;;;;;20.04;76.52;100347.53;7363205;19;20078;-63
2022/09/12 00:10:07;;;;;;;0.00;0.00;;;;;;;20.03;76.89;100351.16;7361538;19;20014;-63
2022/09/12 00:12:33;;;;;;;0.10;0.10;;;;;;;20.02;76.75;100357.38;7359323;19;20014;-63
2022/09/12 00:14:58;;;;;;;0.00;0.00;;;;;;;19.99;76.85;100341.69;7361193;19;20017;-62
2022/09/12 00:17:24;;;;;;;0.00;0.00;;;;;;;19.96;77.44;100351.53;7355954;19;20016;-63
2022/09/12 00:19:49;;;;;;;0.00;0.00;;;;;;;19.92;77.77;100344.75;7363113;19;20007;-62
2022/09/12 00:22:15;;;;;;;0.00;0.00;;;;;;;19.92;78.03;100349.19;7358290;19;20099;-63
2022/09/12 00:24:40;;;;;;;0.00;0.00;;;;;;;19.90;77.61;100351.94;7361305;19;20021;-61
2022/09/12 00:27:06;;;;;;;0.00;0.00;;;;;;;19.90;77.67;100345.81;7359833;19;20534;-62
2022/09/12 00:29:31;;;;;;;0.00;0.00;;;;;;;19.88;77.82;100343.25;7362427;19;20066;-63
2022/09/12 00:31:56;;;;;;;0.10;0.10;;;;;;;19.87;77.42;100346.88;7360508;19;20041;-62
2022/09/12 00:34:22;;;;;;;0.00;0.00;;;;;;;19.86;77.78;100342.50;7360762;19;20002;-62
2022/09/12 00:36:47;;;;;;;0.00;0.00;;;;;;;19.85;77.50;100351.41;7359243;19;20116;-63
2022/09/12 00:39:16;;;;;;;0.00;0.00;;;;;;;19.87;78.09;100346.00;7357825;19;20013;-62
2022/09/12 00:41:43;;;;;;;0.00;0.00;;;;;;;19.81;78.39;100344.59;7362444;19;20017;-63
2022/09/12 00:44:11;;;;;;;0.10;0.10;;;;;;;19.84;77.75;100354.16;7360435;19;20007;-63
2022/09/12 00:46:42;;;;;;;0.00;0.00;;;;;;;19.79;78.57;100349.19;7359733;19;20452;-62
2022/09/12 00:49:13;;;;;;;0.00;0.00;;;;;;;19.82;77.77;100353.41;7360557;19;20822;-63
2022/09/12 00:51:42;;;;;;;0.03;0.03;;;;;;;19.80;77.77;100345.56;7360698;19;20103;-63
2022/09/12 00:54:14;;;;;;;0.00;0.00;;;;;;;19.77;77.94;100340.50;7360639;19;20714;-62
2022/09/12 00:56:42;;;;;;;0.00;0.00;;;;;;;19.80;77.94;100345.56;7359724;19;20018;-63
2022/09/12 00:59:17;;;;;;;0.00;0.00;;;;;;;19.80;77.80;100328.81;7360542;19;20865;-62
2022/09/12 01:01:44;;;;;;;0.00;0.00;;;;;;;19.81;78.08;100341.13;7357985;19;20010;-62
2022/09/12 01:04:14;;;;;;;0.00;0.00;;;;;;;19.79;78.08;100333.28;7357535;19;20043;-62
2022/09/12 01:06:42;;;;;;;0.00;0.00;;;;;;;19.83;78.56;100339.22;7360253;19;20022;-62
2022/09/12 01:09:10;;;;;;;0.00;0.00;;;;;;;19.81;78.14;100334.00;7360360;19;20415;-62
2022/09/12 01:11:39;;;;;;;0.00;0.00;;;;;;;19.83;77.68;100334.78;7359931;19;20010;-62
2022/09/12 01:14:05;;;;;;;0.00;0.00;;;;;;;19.82;78.20;100333.09;7361213;19;20089;-63
2022/09/12 01:16:33;;;;;;;0.10;0.10;;;;;;;19.82;77.75;100333.09;7360402;19;20036;-63
2022/09/12 01:19:45;;;;;;;0.00;0.00;;;;;;;19.82;77.38;100316.31;7356711;19;20465;-63
2022/09/12 01:22:21;;;;;;;0.00;0.00;;;;;;;19.84;77.35;100319.72;7257037;19;2004501;-62
2022/09/12 01:25:19;;;;;;;0.00;0.00;;;;;;;19.88;76.76;100327.38;7360053;19;20018;-63
2022/09/12 01:28:00;;;;;;;0.00;0.00;;;;;;;19.86;77.48;100323.94;7256534;19;2004433;-62
2022/09/12 01:30:47;;;;;;;0.00;0.00;;;;;;;19.84;76.92;100325.88;7360253;19;20017;-62
2022/09/12 01:33:23;;;;;;;0.00;0.00;;;;;;;19.84;77.25;100317.06;7360350;19;20006;-63
2022/09/12 01:36:15;;;;;;;0.00;0.00;;;;;;;19.85;76.62;100316.13;7360562;19;20677;-63
2022/09/12 01:38:58;;;;;;;0.00;0.00;;;;;;;19.81;77.10;100315.47;7256559;19;2004384;-63
2022/09/12 01:41:42;;;;;;;0.10;0.10;;;;;;;19.79;77.57;100316.53;7358360;19;20015;-63
2022/09/12 01:44:33;;;;;;;0.00;0.00;;;;;;;19.78;77.10;100315.69;7360155;19;20010;-63
2022/09/12 01:47:14;;;;;;;0.00;0.00;;;;;;;19.68;77.04;100304.84;7256168;19;2004425;-63
2022/09/12 01:49:45;;;;;;;0.00;0.00;;;;;;;19.69;77.52;100313.66;7355893;19;20082;-63
2022/09/12 01:52:17;;;;;;;0.00;0.00;;;;;;;19.66;77.75;100316.50;7357134;19;20014;-63
2022/09/12 01:55:12;;;;;;;0.00;0.00;;;;;;;19.66;76.84;100316.50;7358134;19;20029;-62
2022/09/12 01:58:06;;;;;;;0.00;0.00;;;;;;;19.62;77.36;100312.38;7247390;19;2004303;-63
2022/09/12 02:00:36;;;;;;;0.00;0.00;;;;;;;19.57;77.56;100311.78;7256163;19;2004578;-63
2022/09/12 02:03:09;;;;;;;0.08;0.08;;;;;;;19.56;77.71;100318.03;7359319;19;20007;-63
2022/09/12 02:05:43;;;;;;;0.00;0.00;;;;;;;19.52;78.53;100313.91;7352277;19;20024;-63
2022/09/12 02:08:13;;;;;;;0.00;0.00;;;;;;;19.44;78.11;100302.00;7359607;19;20011;-63
2022/09/12 02:10:59;;;;;;;0.00;0.00;;;;;;;19.53;77.58;100312.94;7356164;19;20021;-63
2022/09/12 02:13:45;;;;;;;0.00;0.00;;;;;;;19.53;77.61;100312.94;7355624;19;20010;-63
2022/09/12 02:16:20;;;;;;;0.10;0.10;;;;;;;19.51;77.87;100313.03;7357026;19;20002;-63
2022/09/12 02:18:51;;;;;;;0.10;0.10;;;;;;;19.50;78.17;100313.13;7360632;19;20035;-63
2022/09/12 02:21:18;;;;;;;0.00;0.00;;;;;;;19.49;77.88;100316.75;7361291;19;20019;-63
2022/09/12 02:23:49;;;;;;;0.03;0.03;;;;;;;19.50;78.43;100318.44;7361780;19;20630;-62
2022/09/12 02:26:22;;;;;;;0.00;0.00;;;;;;;19.50;78.50;100321.06;7360550;19;20013;-62
2022/09/12 02:28:47;;;;;;;0.00;0.00;;;;;;;19.47;78.66;100313.34;7361391;19;20026;-62
2022/09/12 02:31:26;;;;;;;0.00;0.00;;;;;;;19.52;78.55;100319.19;7361474;19;20018;-63
2022/09/12 02:33:57;;;;;;;0.00;0.00;;;;;;;19.54;77.96;100319.94;7361532;19;20031;-63
2022/09/12 02:36:50;;;;;;;0.00;0.00;;;;;;;19.55;77.82;100318.97;7362306;19;20006;-63
2022/09/12 02:39:20;;;;;;;0.00;0.00;;;;;;;19.51;78.38;100320.13;7258146;19;2004526;-62
2022/09/12 02:41:58;;;;;;;0.03;0.03;;;;;;;19.54;77.62;100318.13;7358693;19;20010;-63
2022/09/12 02:44:25;;;;;;;0.00;0.00;;;;;;;19.53;78.39;100320.88;7361166;19;20010;-63
2022/09/12 02:46:57;;;;;;;0.00;0.00;;;;;;;19.55;78.61;100318.97;7360230;19;20010;-62
2022/09/12 02:49:23;;;;;;;0.00;0.00;;;;;;;19.48;78.25;100307.09;7361276;19;20077;-63
2022/09/12 02:51:48;;;;;;;0.05;0.05;;;;;;;19.54;78.49;100319.94;7357240;19;20049;-63
2022/09/12 02:54:16;;;;;;;0.00;0.00;;;;;;;19.55;78.41;100325.13;7360813;19;20006;-62
2022/09/12 02:56:43;;;;;;;0.00;0.00;;;;;;;19.57;78.70;100327.69;7358612;19;20007;-62
2022/09/12 02:59:10;;;;;;;;;;;;;;;19.63;77.08;100322.84;7359142;19;20752;-63
2022/09/12 03:01:45;;;;;;;0.00;0.00;;;;;;;19.59;78.29;100316.06;7359506;19;19945;-63
2022/09/12 03:04:29;;;;;;;0.00;0.00;;;;;;;19.63;77.57;100316.72;7351348;19;20013;-63
2022/09/12 03:07:15;;;;;;;0.00;0.00;;;;;;;19.58;78.00;100306.38;7364908;19;20066;-63
2022/09/12 03:10:06;;;;;;;0.10;0.10;;;;;;;19.59;78.15;100316.06;7366339;19;20010;-63
2022/09/12 03:13:20;;;;;;;0.00;0.00;;;;;;;19.58;78.00;100318.78;7264749;19;2004584;-62
2022/09/12 03:15:57;;;;;;;0.00;0.00;;;;;;;19.55;78.65;100318.97;7262718;19;2004166;-62
2022/09/12 03:18:43;;;;;;;;;;;;;;;19.58;76.77;100319.63;7360382;19;20819;-63
2022/09/12 03:21:26;;;;;;;0.00;0.00;;;;;;;19.57;77.82;100325.03;7365368;19;19923;-61
2022/09/12 03:24:04;;;;;;;0.00;0.00;;;;;;;19.56;78.62;100334.75;7368247;19;20007;-62
2022/09/12 03:26:38;;;;;;;0.08;0.08;;;;;;;19.54;78.67;100334.03;7365383;19;20739;-63
2022/09/12 03:29:06;;;;;;;0.10;0.10;;;;;;;19.54;78.81;100338.47;7369574;19;20027;-63
2022/09/12 03:31:32;;;;;;;0.00;0.00;;;;;;;19.50;78.30;100337.81;7367687;19;20514;-62
2022/09/12 03:33:59;;;;;;;0.00;0.00;;;;;;;19.51;78.32;100338.66;7368399;19;20104;-63
2022/09/12 03:36:27;;;;;;;0.10;0.10;;;;;;;19.49;78.69;100343.22;7365681;19;20010;-62
2022/09/12 03:38:53;;;;;;;0.00;0.00;;;;;;;19.40;78.82;100332.25;7367358;19;20096;-62
2022/09/12 03:41:18;;;;;;;0.00;0.00;;;;;;;19.44;78.93;100336.41;7367449;19;20079;-62
2022/09/12 03:43:44;;;;;;;0.00;0.00;;;;;;;19.36;79.13;100327.28;7367949;19;20766;-62
2022/09/12 03:46:09;;;;;;;0.00;0.00;;;;;;;19.41;79.23;100344.59;7368222;19;20013;-62
2022/09/12 03:48:35;;;;;;;0.03;0.03;;;;;;;19.39;78.82;100341.16;7367801;19;20019;-62
2022/09/12 03:51:03;;;;;;;0.00;0.00;;;;;;;19.36;79.61;100338.75;7365708;19;20017;-62
2022/09/12 03:53:29;;;;;;;0.00;0.00;;;;;;;19.36;79.31;100345.81;7367061;19;20021;-62
2022/09/12 03:55:54;;;;;;;0.05;0.05;;;;;;;19.36;79.29;100341.38;7363468;19;20018;-62
2022/09/12 03:58:20;;;;;;;0.00;0.00;;;;;;;19.37;79.38;100348.38;7368659;19;20148;-63
2022/09/12 04:00:45;;;;;;;0.00;0.00;;;;;;;19.38;79.26;100355.38;7365161;19;20010;-63
2022/09/12 04:03:10;;;;;;;0.10;0.10;;;;;;;19.37;78.64;100356.31;7366807;19;20011;-62
2022/09/12 04:05:36;;;;;;;0.10;0.10;;;;;;;19.37;78.84;100355.47;7366267;19;20032;-63
2022/09/12 04:08:01;;;;;;;0.00;0.00;;;;;;;19.35;79.18;100352.06;7368306;19;20773;-62
2022/09/12 04:10:27;;;;;;;0.00;0.00;;;;;;;19.34;79.15;100348.56;7363864;19;20010;-63
2022/09/12 04:12:52;;;;;;;0.08;0.08;;;;;;;19.34;79.07;100353.00;7367519;19;20022;-62
2022/09/12 04:15:18;;;;;;;0.00;0.00;;;;;;;19.33;79.18;100349.50;7366243;19;20103;-62
2022/09/12 04:17:43;;;;;;;0.00;0.00;;;;;;;19.33;79.53;100351.31;7367511;19;20615;-63
2022/09/12 04:20:09;;;;;;;0.05;0.05;;;;;;;19.21;79.35;100331.78;7367182;19;20007;-63
2022/09/12 04:22:34;;;;;;;0.00;0.00;;;;;;;19.31;78.68;100348.78;7366793;19;20038;-63
2022/09/12 04:25:00;;;;;;;0.00;0.00;;;;;;;19.28;78.63;100348.97;7365022;19;20019;-62
2022/09/12 04:27:26;;;;;;;0.00;0.00;;;;;;;19.27;79.38;100347.28;7366463;19;20014;-63
2022/09/12 04:29:53;;;;;;;0.00;0.00;;;;;;;19.26;79.51;100353.53;7365972;19;20073;-62
2022/09/12 04:32:19;;;;;;;0.00;0.00;;;;;;;19.24;79.19;100352.75;7365201;19;20506;-62
2022/09/12 04:34:45;;;;;;;0.10;0.10;;;;;;;19.23;79.22;100356.34;7365485;19;20074;-63
2022/09/12 04:37:11;;;;;;;0.00;0.00;;;;;;;19.23;79.46;100356.34;7365906;19;20030;-62
2022/09/12 04:39:36;;;;;;;0.00;0.00;;;;;;;19.23;79.24;100350.22;7363036;19;20073;-62
2022/09/12 04:42:03;;;;;;;0.00;0.00;;;;;;;19.20;79.67;100351.25;7366484;19;20018;-61
2022/09/12 04:44:29;;;;;;;0.00;0.00;;;;;;;19.19;79.36;100358.34;7362701;19;21174;-63
2022/09/12 04:46:54;;;;;;;0.00;0.00;;;;;;;19.17;79.38;100352.31;7364668;19;20006;-62
2022/09/12 04:49:19;;;;;;;0.00;0.00;;;;;;;19.18;78.89;100358.44;7361150;19;20014;-63
2022/09/12 04:51:45;;;;;;;0.00;0.00;;;;;;;19.09;79.09;100337.84;7363899;19;20468;-62
2022/09/12 04:54:16;;;;;;;0.00;0.00;;;;;;;19.17;79.48;100356.75;7366554;19;20010;-62
2022/09/12 04:56:44;;;;;;;0.00;0.00;;;;;;;19.13;79.47;100349.94;7365882;19;20938;-62
2022/09/12 04:59:13;;;;;;;0.03;0.03;;;;;;;19.11;79.71;100351.81;7364284;19;20021;-62
2022/09/12 05:01:38;;;;;;;0.00;0.00;;;;;;;19.04;80.05;100345.22;7367047;19;20018;-62
2022/09/12 05:04:04;;;;;;;0.00;0.00;;;;;;;18.91;79.43;100329.31;7364894;19;20044;-62
2022/09/12 05:06:35;;;;;;;0.00;0.00;;;;;;;19.01;79.95;100342.78;7365306;19;20708;-63
2022/09/12 05:09:02;;;;;;;0.00;0.00;;;;;;;18.95;79.88;100345.81;7365985;19;20007;-62
2022/09/12 05:11:30;;;;;;;0.10;0.10;;;;;;;18.93;80.02;100352.06;7365006;19;20120;-62
2022/09/12 05:13:56;;;;;;;0.00;0.00;;;;;;;18.89;80.15;100363.78;7364380;19;20022;-62
2022/09/12 05:16:23;;;;;;;0.10;0.10;;;;;;;18.82;79.83;100354.53;7364166;19;20011;-62
2022/09/12 05:18:49;;;;;;;0.00;0.00;;;;;;;18.83;79.95;100358.88;7365174;19;20020;-62
2022/09/12 05:21:17;;;;;;;0.00;0.00;;;;;;;18.81;80.09;100360.78;7364039;19;20015;-62
2022/09/12 05:23:43;;;;;;;0.00;0.00;;;;;;;18.76;80.35;100352.28;7365646;19;20326;-62
2022/09/12 05:26:14;;;;;;;0.10;0.10;;;;;;;18.76;80.04;100360.22;7363576;19;20806;-63
2022/09/12 05:28:39;;;;;;;0.00;0.00;;;;;;;18.62;80.35;100339.00;7366109;19;20014;-62
2022/09/12 05:31:12;;;;;;;0.10;0.10;;;;;;;18.72;80.09;100360.50;7363564;19;20014;-63
2022/09/12 05:33:39;;;;;;;0.00;0.00;;;;;;;18.67;80.29;100360.75;7363233;19;20006;-62
2022/09/12 05:36:06;;;;;;;;;;;;;;;18.68;78.83;100365.13;7363880;19;20463;-62
2022/09/12 05:38:34;;;;;;;0.10;0.10;;;;;;;18.62;80.04;100365.47;7365200;19;20878;-62
2022/09/12 05:41:05;;;;;;;0.00;0.00;;;;;;;18.59;79.68;100365.63;7362500;19;20474;-63
2022/09/12 05:43:31;;;;;;;0.00;0.00;;;;;;;18.51;80.40;100368.75;7365247;19;20085;-62
2022/09/12 05:46:02;;;;;;;0.10;0.10;;;;;;;18.50;80.43;100376.78;7363408;19;20108;-63
2022/09/12 05:48:27;;;;;;;0.10;0.10;;;;;;;18.44;80.54;100374.50;7363091;19;20149;-63
2022/09/12 05:51:02;;;;;;;0.00;0.00;;;;;;;18.44;80.28;100375.34;7363812;19;20015;-63
2022/09/12 05:53:31;;;;;;;0.00;0.00;;;;;;;18.21;81.02;100334.47;7361401;19;20021;-62
2022/09/12 05:56:10;;;;;;;0.00;0.00;;;;;;;18.39;80.43;100369.50;7362394;19;20021;-62
2022/09/12 05:58:37;;;;;;;0.00;0.00;;;;;;;18.34;80.29;100377.69;7353492;19;20045;-63
2022/09/12 06:01:06;;;;;;;0.00;0.00;;;;;;;18.34;80.89;100382.97;7360775;19;20623;-62
2022/09/12 06:03:32;;;;;;;0.00;0.00;;;;;;;18.32;80.66;100384.03;7362373;19;20011;-62
2022/09/12 06:06:01;;;;;;;0.00;0.00;;;;;;;18.33;80.14;100391.00;7359872;19;20014;-63
2022/09/12 06:08:27;;;;;;;0.00;0.00;;;;;;;18.29;80.74;100390.34;7360526;19;20432;-62
2022/09/12 06:11:01;;;;;;;0.00;0.00;;;;;;;18.33;80.87;100391.00;7362805;19;20095;-63
2022/09/12 06:13:27;;;;;;;0.00;0.00;;;;;;;18.31;81.63;100399.03;7362705;19;20010;-62
2022/09/12 06:15:53;;;;;;;0.00;0.00;;;;;;;18.25;81.44;100377.41;7361295;19;20006;-63
2022/09/12 06:18:19;;;;;;;0.05;0.05;;;;;;;18.34;81.60;100393.56;7359974;19;20066;-62
2022/09/12 06:20:45;;;;;;;0.00;0.00;;;;;;;18.39;81.63;100402.06;7360942;19;20067;-62
2022/09/12 06:23:11;;;;;;;0.00;0.00;;;;;;;18.35;81.47;100387.34;7362438;19;20019;-62
2022/09/12 06:25:37;;;;;;;0.00;0.00;;;;;;;18.45;81.26;100402.63;7358072;19;20598;-62
2022/09/12 06:28:03;;;;;;;0.00;0.00;;;;;;;18.48;81.42;100405.09;7361949;19;20036;-63
2022/09/12 06:30:28;;;;;;;0.00;0.00;;;;;;;18.49;80.83;100402.38;7360953;19;20022;-61
2022/09/12 06:32:55;;;;;;;0.00;0.00;;;;;;;18.52;80.90;100409.28;7362462;19;20467;-63
2022/09/12 06:35:22;;;;;;;0.00;0.00;;;;;;;18.55;81.03;100409.06;7356328;19;20031;-62
2022/09/12 06:37:47;;;;;;;0.00;0.00;;;;;;;18.57;80.91;100409.84;7349445;19;20355;-62
2022/09/12 06:40:13;;;;;;;0.03;0.03;;;;;;;18.59;80.91;100407.94;7356386;19;20042;-62
2022/09/12 06:42:38;;;;;;;0.00;0.00;;;;;;;18.61;81.02;100409.56;7361412;19;20011;-62
2022/09/12 06:45:04;;;;;;;0.00;0.00;;;;;;;18.63;80.91;100404.19;7360802;19;20010;-63
2022/09/12 06:47:29;;;;;;;0.00;0.00;;;;;;;18.68;80.97;100412.72;7362852;19;20010;-63
2022/09/12 06:49:54;;;;;;;0.00;0.00;;;;;;;18.71;80.64;100417.84;7365506;19;20744;-62
2022/09/12 06:52:20;;;;;;;0.00;0.00;;;;;;;18.74;80.64;100422.06;7364847;19;20114;-62
2022/09/12 06:54:46;;;;;;;0.00;0.00;;;;;;;18.75;80.85;100413.19;7362604;19;20530;-63
2022/09/12 06:57:11;;;;;;;0.00;0.00;;;;;;;18.75;80.36;100419.31;7368323;19;20499;-62
2022/09/12 06:59:37;;;;;;;0.10;0.10;;;;;;;18.76;80.94;100421.06;7362777;19;20019;-62
2022/09/12 07:02:02;;;;;;;0.00;0.00;;;;;;;18.81;80.96;100423.41;7365744;19;20011;-63
2022/09/12 07:04:28;;;;;;;0.00;0.00;;;;;;;18.82;80.92;100428.59;7364413;19;20045;-62
2022/09/12 07:06:53;;;;;;;0.10;0.10;;;;;;;18.85;80.90;100420.47;7367066;19;20089;-63
2022/09/12 07:09:19;;;;;;;0.05;0.05;;;;;;;18.85;80.77;100420.47;7368887;19;20554;-62
2022/09/12 07:11:45;;;;;;;0.00;0.00;;;;;;;18.90;80.73;100415.75;7367968;19;20043;-63
2022/09/12 07:14:13;;;;;;;0.03;0.03;;;;;;;18.94;80.20;100421.69;7366932;19;20354;-62
2022/09/12 07:16:39;;;;;;;0.10;0.10;;;;;;;18.96;80.54;100432.19;7368282;19;20462;-62
2022/09/12 07:19:06;;;;;;;0.00;0.00;;;;;;;19.02;80.62;100443.25;7366583;19;23222;-62
2022/09/12 07:21:31;;;;;;;0.00;0.00;;;;;;;19.06;80.33;100436.84;7367873;19;20352;-62
2022/09/12 07:23:57;;;;;;;0.00;0.00;;;;;;;19.10;80.17;100437.47;7362715;19;21339;-63
2022/09/12 07:26:24;;;;;;;0.00;0.00;;;;;;;19.14;80.17;100433.69;7364777;19;20007;-62
2022/09/12 07:28:54;;;;;;;0.00;0.00;;;;;;;19.12;80.19;100417.06;7368143;19;20668;-62
2022/09/12 07:31:22;;;;;;;0.10;0.10;;;;;;;19.24;79.89;100426.88;7368284;19;21306;-62
2022/09/12 07:33:49;;;;;;;0.00;0.00;;;;;;;19.30;80.16;100428.28;7361047;19;20494;-62
2022/09/12 07:36:16;;;;;;;0.03;0.03;;;;;;;19.33;79.55;100426.31;7358718;19;20026;-63
2022/09/12 07:38:42;;;;;;;;;;;;;;;19.49;79.31;100435.91;7365420;19;20009;-63
2022/09/12 07:41:34;;;;;;;0.10;0.10;;;;;;;19.54;79.05;100436.47;7368657;19;20727;-62
2022/09/12 07:44:01;;;;;;;0.00;0.00;;;;;;;19.50;78.82;100448.19;7366453;19;20078;-62
2022/09/12 07:46:28;;;;;;;0.10;0.10;;;;;;;19.54;79.04;100444.41;7363237;19;20034;-63
2022/09/12 07:48:56;;;;;;;0.10;0.10;;;;;;;19.56;78.86;100439.84;7366005;19;20014;-62
2022/09/12 07:51:23;;;;;;;0.00;0.00;;;;;;;19.57;78.66;100444.22;7365947;19;20006;-62
2022/09/12 07:53:49;;;;;;;0.10;0.10;;;;;;;19.60;79.07;100444.03;7368011;19;20025;-63
2022/09/12 07:56:15;;;;;;;0.05;0.05;;;;;;;19.63;78.96;100444.72;7367120;19;20023;-63
2022/09/12 07:58:42;;;;;;;0.10;0.10;;;;;;;19.68;78.95;100447.91;7367341;19;20849;-62
2022/09/12 08:01:14;;;;;;;0.10;0.10;;;;;;;19.78;78.87;100456.13;7362891;19;20010;-62
2022/09/12 08:03:41;;;;;;;0.10;0.10;;;;;;;19.79;78.86;100460.47;7365588;19;20007;-62
2022/09/12 08:06:10;;;;;;;0.10;0.10;;;;;;;19.85;78.68;100454.75;7361269;19;20015;-63
2022/09/12 08:08:36;;;;;;;0.00;0.00;;;;;;;19.88;78.39;100459.88;7364635;19;20501;-62
2022/09/12 08:11:04;;;;;;;0.10;0.10;;;;;;;19.95;78.47;100461.16;7362822;19;20106;-62
2022/09/12 08:13:31;;;;;;;0.00;0.00;;;;;;;19.99;78.42;100453.00;7365264;19;20463;-63
2022/09/12 08:16:02;;;;;;;0.00;0.00;;;;;;;20.08;78.86;100460.38;7362331;19;20007;-62
2022/09/12 08:18:29;;;;;;;0.00;0.00;;;;;;;20.10;78.78;100451.34;7364455;19;20466;-62
2022/09/12 08:20:59;;;;;;;0.00;0.00;;;;;;;20.22;78.09;100462.94;7361501;19;20027;-63
2022/09/12 08:23:24;;;;;;;0.00;0.00;;;;;;;20.28;78.22;100467.84;7366230;19;21108;-63
2022/09/12 08:25:53;;;;;;;0.00;0.00;;;;;;;20.25;77.87;100440.69;7361426;19;20010;-62
2022/09/12 08:28:19;;;;;;;0.05;0.05;;;;;;;20.38;77.16;100453.00;7363717;19;20025;-62
2022/09/12 08:30:44;;;;;;;0.00;0.00;;;;;;;20.46;77.04;100455.13;7363103;19;20006;-62
2022/09/12 08:33:10;;;;;;;0.00;0.00;;;;;;;20.53;77.22;100464.44;7353834;19;20014;-63
2022/09/12 08:35:35;;;;;;;0.00;0.00;;;;;;;20.60;77.35;100459.53;7366132;19;20010;-62
2022/09/12 08:38:00;;;;;;;0.00;0.00;;;;;;;20.68;77.24;100459.84;7366065;19;20039;-63
2022/09/12 08:40:26;;;;;;;0.00;0.00;;;;;;;20.73;76.34;100457.72;7362795;19;20015;-63
2022/09/12 08:43:40;;;;;;;0.00;0.00;;;;;;;20.87;77.15;100454.97;7363383;19;20022;-63
2022/09/12 08:46:38;;;;;;;0.10;0.10;;;;;;;20.93;76.79;100465.19;7255398;19;2004271;-62
2022/09/12 08:49:08;;;;;;;0.10;0.10;;;;;;;20.84;76.07;100460.50;7261251;19;2004342;-62
2022/09/12 08:51:35;;;;;;;0.00;0.00;;;;;;;20.93;76.14;100466.97;7363171;19;20011;-62
2022/09/12 08:54:03;;;;;;;0.00;0.00;;;;;;;20.95;76.23;100468.56;7364104;19;20034;-62
2022/09/12 08:56:34;;;;;;;0.10;0.10;;;;;;;20.99;76.26;100470.06;7365651;19;20357;-62
2022/09/12 08:59:00;;;;;;;0.00;0.00;;;;;;;20.93;75.70;100470.50;7358341;19;20014;-62
2022/09/12 09:01:39;;;;;;;0.00;0.00;;;;;;;21.07;76.67;100466.00;7354699;19;20095;-63
2022/09/12 09:04:31;;;;;;;0.00;0.00;;;;;;;21.04;75.87;100471.56;7358656;19;20092;-62
2022/09/12 09:07:14;;;;;;;0.10;0.10;;;;;;;21.11;76.34;100478.97;7256934;19;2004793;-63
2022/09/12 09:10:21;;;;;;;0.00;0.00;;;;;;;21.16;76.48;100473.34;7354106;19;20007;-63
2022/09/12 09:12:59;;;;;;;0.10;0.10;;;;;;;21.17;75.95;100477.69;7256373;19;2004421;-62
2022/09/12 09:15:36;;;;;;;0.00;0.00;;;;;;;21.21;76.03;100479.16;7361873;19;20570;-62
2022/09/12 09:18:37;;;;;;;0.00;0.00;;;;;;;21.22;75.29;100487.03;7360796;19;20010;-62
2022/09/12 09:21:20;;;;;;;0.10;0.10;;;;;;;21.26;76.03;100490.31;7254049;19;2004562;-63
2022/09/12 09:23:50;;;;;;;0.00;0.00;;;;;;;21.12;75.51;100466.53;7363708;19;20033;-61
2022/09/12 09:26:36;;;;;;;0.00;0.00;;;;;;;21.28;76.35;100485.72;7365773;19;20006;-62
2022/09/12 09:29:13;;;;;;;0.00;0.00;;;;;;;21.29;76.05;100484.81;7360913;19;20795;-62
2022/09/12 09:31:40;;;;;;;0.00;0.00;;;;;;;21.28;76.02;100501.66;7360631;19;21051;-63
2022/09/12 09:34:17;;;;;;;0.00;0.00;;;;;;;21.38;76.24;100500.09;7360161;19;20030;-62
2022/09/12 09:36:49;;;;;;;0.00;0.00;;;;;;;21.39;75.66;100499.16;7363027;19;20011;-63
2022/09/12 09:39:43;;;;;;;0.00;0.00;;;;;;;21.45;75.94;100493.41;7365648;19;20010;-63
2022/09/12 09:42:36;;;;;;;0.00;0.00;;;;;;;21.47;75.91;100496.78;7262343;19;2004547;-63
2022/09/12 09:45:10;;;;;;;0.00;0.00;;;;;;;21.48;76.04;100503.78;7261217;19;2004357;-62
2022/09/12 09:47:36;;;;;;;0.10;0.10;;;;;;;21.40;75.99;100490.22;7362185;19;20006;-62
2022/09/12 09:50:02;;;;;;;0.10;0.10;;;;;;;21.57;75.27;100504.94;7361101;19;20467;-63
2022/09/12 09:52:29;;;;;;;0.03;0.03;;;;;;;21.69;75.26;100517.34;7366747;19;20006;-62
2022/09/12 09:54:59;;;;;;;0.00;0.00;;;;;;;21.80;75.74;100507.78;7363583;19;20030;-62
2022/09/12 09:57:33;;;;;;;0.00;0.00;;;;;;;21.97;75.69;100510.03;7364832;19;20035;-63
2022/09/12 10:00:20;;;;;;;0.00;0.00;;;;;;;22.03;74.44;100498.94;7362266;19;20085;-63
2022/09/12 10:03:25;;;;;;;0.08;0.08;;;;;;;22.25;75.19;100503.53;7364788;19;20017;-62
2022/09/12 10:06:04;;;;;;;0.00;0.00;;;;;;;22.20;74.82;100473.78;7262488;19;2004204;-62
2022/09/12 10:08:35;;;;;;;0.00;0.00;;;;;;;22.48;74.30;100502.69;7364227;19;20848;-63
2022/09/12 10:11:03;;;;;;;0.00;0.00;;;;;;;22.62;72.91;100506.97;7360263;19;20111;-62
2022/09/12 10:13:40;;;;;;;0.00;0.00;;;;;;;22.91;74.32;100502.09;7363261;19;20010;-63
2022/09/12 10:16:24;;;;;;;0.00;0.00;;;;;;;23.16;74.93;100500.16;7362103;19;20039;-63
2022/09/12 10:18:51;;;;;;;0.00;0.00;;;;;;;23.33;72.46;100506.84;7363845;19;20037;-63
2022/09/12 10:21:17;;;;;;;0.00;0.00;;;;;;;23.55;71.44;100504.16;7361971;19;20018;-62
2022/09/12 10:23:44;;;;;;;0.00;0.00;;;;;;;23.72;71.39;100509.03;7362485;19;20110;-63
2022/09/12 10:26:13;;;;;;;0.00;0.00;;;;;;;23.86;71.38;100515.88;7363423;19;20019;-63
2022/09/12 10:28:42;;;;;;;0.00;0.00;;;;;;;23.92;71.06;100519.88;7362805;19;20562;-62
2022/09/12 10:31:10;;;;;;;0.00;0.00;;;;;;;23.95;71.12;100519.63;7361570;19;20452;-63
2022/09/12 10:33:51;;;;;;;0.00;0.00;;;;;;;23.97;71.15;100521.19;7361947;19;20011;-63
2022/09/12 10:36:18;;;;;;;0.00;0.00;;;;;;;23.88;70.65;100521.97;7359178;19;20771;-63
2022/09/12 10:38:58;;;;;;;0.00;0.00;;;;;;;23.93;71.95;100521.59;7354586;19;20019;-63
2022/09/12 10:41:23;;;;;;;0.00;0.00;;;;;;;23.80;71.25;100517.25;7359269;19;20006;-63
2022/09/12 10:43:49;;;;;;;0.10;0.10;;;;;;;23.55;70.47;100481.00;7357130;19;20016;-63
2022/09/12 10:46:18;;;;;;;0.10;0.10;;;;;;;23.78;71.55;100518.34;7358535;19;20010;-63
2022/09/12 10:48:44;;;;;;;0.10;0.10;;;;;;;23.78;70.89;100523.69;7355804;19;20014;-62
2022/09/12 10:51:28;;;;;;;0.10;0.10;;;;;;;23.84;72.22;100533.84;7356820;19;20033;-63
2022/09/12 10:53:58;;;;;;;0.00;0.00;;;;;;;23.77;69.43;100535.31;7352938;19;20456;-63
2022/09/12 10:56:28;;;;;;;0.10;0.10;;;;;;;23.80;71.21;100535.06;7352125;19;20463;-63
2022/09/12 10:59:15;;;;;;;0.10;0.10;;;;;;;23.82;72.29;100525.09;7356731;19;20006;-63
2022/09/12 11:01:43;;;;;;;0.00;0.00;;;;;;;23.75;70.70;100529.25;7355064;19;20006;-63
2022/09/12 11:04:21;;;;;;;0.00;0.00;;;;;;;23.75;71.48;100532.75;7356837;19;20014;-63
2022/09/12 11:06:57;;;;;;;0.00;0.00;;;;;;;23.81;71.45;100537.59;7353803;19;20023;-62
2022/09/12 11:09:57;;;;;;;0.00;0.00;;;;;;;23.79;71.69;100522.72;7352067;19;20578;-63
2022/09/12 11:12:41;;;;;;;0.00;0.00;;;;;;;23.84;71.61;100535.69;7255328;19;2004454;-62
2022/09/12 11:15:24;;;;;;;0.00;0.00;;;;;;;23.74;71.57;100531.06;7359367;19;20014;-61
2022/09/12 11:17:55;;;;;;;0.10;0.10;;;;;;;23.73;71.51;100536.53;7359624;19;20026;-62
2022/09/12 11:20:45;;;;;;;0.10;0.10;;;;;;;23.77;72.38;100532.63;7359296;19;20458;-63
2022/09/12 11:23:32;;;;;;;0.00;0.00;;;;;;;23.71;71.39;100539.31;7361175;19;20089;-62
2022/09/12 11:26:35;;;;;;;0.00;0.00;;;;;;;23.73;70.75;100539.22;7368462;19;20547;-62
2022/09/12 11:29:38;;;;;;;0.10;0.10;;;;;;;23.71;70.56;100554.47;7251855;19;2004070;-62
2022/09/12 11:32:06;;;;;;;0.00;0.00;;;;;;;23.65;70.71;100565.63;7259659;19;2004406;-63
2022/09/12 11:34:52;;;;;;;0.00;0.00;;;;;;;23.62;71.17;100566.69;7361480;19;20014;-63
2022/09/12 11:37:42;;;;;;;0.00;0.00;;;;;;;23.55;71.97;100566.31;7257836;19;2004698;-62
2022/09/12 11:40:24;;;;;;;0.00;0.00;;;;;;;23.48;71.40;100573.13;7257504;19;2004648;-62
2022/09/12 11:42:55;;;;;;;0.00;0.00;;;;;;;23.40;70.74;100567.53;7361904;19;20014;-63
2022/09/12 11:45:32;;;;;;;0.00;0.00;;;;;;;23.34;71.27;100557.34;7363752;19;20078;-63